Time;durP1;ratioP1;P1;durP2;ratioP2;P2;SDS_P1;SDS_P2;PMS_P1;PMS_P2;Temp;Humidity;BMP_temperature;BMP_pressure;BME280_temperature;BME280_humidity;BME280_pressure;Samples;Min_cycle;Max_cycle;Signal;HPM_P1;HPM_P2
2021/03/03 00:00:31;;;;;;;14.63;9.40;;;13.60;44.10;;;;;;2114869;28;20096;-60
2021/03/03 00:01:52;;;;;;;16.15;9.48;;;13.60;44.20;;;;;;2122224;27;20015;-60
2021/03/03 00:03:13;;;;;;;14.23;9.25;;;13.60;44.30;;;;;;2131121;27;20102;-60
2021/03/03 00:04:33;;;;;;;13.18;9.30;;;13.60;44.40;;;;;;2126090;27;20038;-60
2021/03/03 00:05:54;;;;;;;14.20;9.60;;;13.50;44.50;;;;;;2125099;27;20050;-60
2021/03/03 00:07:15;;;;;;;15.38;9.38;;;13.50;44.60;;;;;;2125629;27;20526;-59
2021/03/03 00:08:36;;;;;;;18.23;9.43;;;13.50;44.50;;;;;;2120142;27;20027;-59
2021/03/03 00:09:57;;;;;;;17.08;9.60;;;13.50;44.50;;;;;;2127248;27;20135;-59
2021/03/03 00:11:18;;;;;;;13.48;9.40;;;13.50;44.60;;;;;;2125369;27;20048;-59
2021/03/03 00:12:39;;;;;;;15.10;9.15;;;13.50;44.60;;;;;;2130630;27;20022;-61
2021/03/03 00:14:00;;;;;;;15.45;9.70;;;13.50;44.70;;;;;;2128181;27;20046;-61
2021/03/03 00:15:21;;;;;;;13.63;9.00;;;13.40;44.60;;;;;;2130728;27;20062;-59
2021/03/03 00:16:42;;;;;;;15.80;10.05;;;13.40;44.70;;;;;;2119914;27;20031;-59
2021/03/03 00:18:03;;;;;;;16.90;10.05;;;13.40;44.70;;;;;;2125769;27;20113;-61
2021/03/03 00:19:24;;;;;;;13.55;8.90;;;13.40;44.80;;;;;;2131629;27;20444;-60
2021/03/03 00:20:45;;;;;;;15.77;10.05;;;13.40;44.80;;;;;;2131225;27;20022;-60
2021/03/03 00:22:06;;;;;;;15.68;9.85;;;13.30;44.80;;;;;;2126225;27;20050;-59
2021/03/03 00:23:27;;;;;;;16.98;9.55;;;13.30;44.90;;;;;;2127208;27;20019;-61
2021/03/03 00:24:48;;;;;;;16.05;9.68;;;13.30;44.90;;;;;;2128020;27;20023;-59
2021/03/03 00:26:08;;;;;;;15.55;9.80;;;13.30;45.00;;;;;;2130532;27;20022;-60
2021/03/03 00:27:29;;;;;;;19.27;10.13;;;13.30;44.90;;;;;;2125668;27;20038;-59
2021/03/03 00:28:50;;;;;;;15.48;9.02;;;13.30;45.00;;;;;;2131580;27;20015;-60
2021/03/03 00:30:12;;;;;;;17.33;9.05;;;13.30;45.00;;;;;;2130513;27;20377;-60
2021/03/03 00:31:33;;;;;;;15.45;10.10;;;13.30;45.10;;;;;;2128738;27;20473;-60
2021/03/03 00:32:54;;;;;;;15.65;9.82;;;13.20;45.10;;;;;;2130403;27;20121;-59
2021/03/03 00:34:14;;;;;;;16.17;9.40;;;13.20;45.30;;;;;;2126477;27;20098;-60
2021/03/03 00:35:35;;;;;;;13.82;9.32;;;13.20;45.40;;;;;;2131220;27;20023;-60
2021/03/03 00:36:56;;;;;;;15.65;9.10;;;13.20;45.40;;;;;;2127434;27;20038;-60
2021/03/03 00:38:17;;;;;;;16.35;9.15;;;13.20;45.40;;;;;;2131332;27;20114;-59
2021/03/03 00:39:38;;;;;;;14.45;9.90;;;13.20;45.40;;;;;;2130369;27;20479;-59
2021/03/03 00:40:59;;;;;;;15.40;9.57;;;13.20;45.50;;;;;;2129702;27;20337;-60
2021/03/03 00:42:20;;;;;;;16.27;10.20;;;13.20;45.60;;;;;;2129504;27;20049;-58
2021/03/03 00:43:41;;;;;;;13.32;9.38;;;13.10;45.60;;;;;;2131238;27;20035;-60
2021/03/03 00:45:03;;;;;;;17.55;10.18;;;13.10;45.60;;;;;;2129058;27;20014;-60
2021/03/03 00:46:24;;;;;;;14.82;9.38;;;13.10;45.80;;;;;;2126358;27;20022;-60
2021/03/03 00:47:45;;;;;;;17.17;9.68;;;13.10;45.70;;;;;;2129058;27;20114;-59
2021/03/03 00:49:06;;;;;;;15.52;9.55;;;13.10;45.70;;;;;;2131125;27;20469;-60
2021/03/03 00:50:27;;;;;;;17.27;9.90;;;13.10;45.80;;;;;;2125272;27;20033;-59
2021/03/03 00:51:48;;;;;;;17.33;9.98;;;13.10;45.90;;;;;;2130030;27;20074;-61
2021/03/03 00:53:10;;;;;;;16.15;9.32;;;13.00;45.90;;;;;;2130935;27;20362;-60
2021/03/03 00:54:31;;;;;;;17.55;10.48;;;13.00;45.80;;;;;;2126898;27;20027;-60
2021/03/03 00:55:53;;;;;;;17.08;10.23;;;13.00;45.80;;;;;;2129942;27;20027;-59
2021/03/03 00:57:14;;;;;;;19.38;10.65;;;13.00;46.00;;;;;;2120089;27;20110;-60
2021/03/03 00:58:35;;;;;;;17.77;10.00;;;13.00;45.90;;;;;;2128805;27;20026;-59
2021/03/03 00:59:56;;;;;;;17.02;9.45;;;13.00;46.00;;;;;;2130460;27;20023;-61
2021/03/03 01:01:17;;;;;;;17.50;9.80;;;13.00;46.00;;;;;;2114657;27;20034;-60
2021/03/03 01:02:38;;;;;;;20.63;10.52;;;13.00;46.00;;;;;;2119409;27;20016;-60
2021/03/03 01:03:59;;;;;;;13.98;9.27;;;12.90;46.00;;;;;;2130898;27;20110;-60
2021/03/03 01:05:20;;;;;;;15.85;9.95;;;12.90;46.10;;;;;;2130185;27;20568;-60
2021/03/03 01:06:40;;;;;;;17.30;10.05;;;12.90;46.00;;;;;;2131038;27;20058;-60
2021/03/03 01:08:01;;;;;;;17.10;10.80;;;12.90;46.20;;;;;;2129496;27;20532;-60
2021/03/03 01:09:23;;;;;;;18.20;10.02;;;12.80;46.20;;;;;;2123979;27;20022;-59
2021/03/03 01:10:44;;;;;;;15.90;9.80;;;12.80;46.30;;;;;;2122231;27;20208;-59
2021/03/03 01:12:05;;;;;;;16.65;10.35;;;12.80;46.20;;;;;;2128207;27;20038;-59
2021/03/03 01:13:26;;;;;;;17.45;10.23;;;12.80;46.30;;;;;;2128043;27;20023;-61
2021/03/03 01:14:47;;;;;;;17.52;10.27;;;12.70;46.40;;;;;;2131976;27;20046;-59
2021/03/03 01:16:08;;;;;;;16.48;9.93;;;12.70;46.40;;;;;;2129521;27;20046;-59
2021/03/03 01:17:28;;;;;;;15.45;10.00;;;12.70;46.50;;;;;;2130013;27;20070;-59
2021/03/03 01:18:49;;;;;;;15.95;9.73;;;12.70;46.50;;;;;;2123781;27;20046;-60
2021/03/03 01:20:11;;;;;;;17.85;10.25;;;12.70;46.60;;;;;;2121136;27;20180;-60
2021/03/03 01:21:32;;;;;;;20.15;10.13;;;12.60;46.60;;;;;;2128948;27;20034;-60
2021/03/03 01:22:52;;;;;;;16.77;9.68;;;12.60;46.60;;;;;;2130818;27;20073;-58
2021/03/03 01:24:14;;;;;;;18.50;10.75;;;12.60;46.70;;;;;;2114226;27;20031;-59
2021/03/03 01:25:35;;;;;;;15.70;10.18;;;12.50;46.80;;;;;;2124154;27;20058;-60
2021/03/03 01:26:55;;;;;;;14.93;9.15;;;12.50;46.90;;;;;;2129420;27;20602;-59
2021/03/03 01:28:17;;;;;;;13.82;9.60;;;12.50;46.90;;;;;;2124486;27;20091;-60
2021/03/03 01:29:37;;;;;;;21.52;10.43;;;12.50;47.00;;;;;;2130362;27;20031;-60
2021/03/03 01:30:58;;;;;;;16.83;9.68;;;12.50;47.10;;;;;;2131735;27;20043;-60
2021/03/03 01:32:19;;;;;;;19.48;10.32;;;12.40;47.10;;;;;;2124726;27;20027;-60
2021/03/03 01:33:40;;;;;;;18.25;9.90;;;12.40;47.20;;;;;;2121707;27;20099;-59
2021/03/03 01:35:01;;;;;;;17.88;10.85;;;12.40;47.20;;;;;;2125010;27;20039;-60
2021/03/03 01:36:22;;;;;;;21.42;11.07;;;12.40;47.20;;;;;;2124348;27;20014;-59
2021/03/03 01:37:43;;;;;;;15.77;10.10;;;12.40;47.40;;;;;;2117890;27;20027;-59
2021/03/03 01:39:04;;;;;;;17.52;10.80;;;12.40;47.40;;;;;;2124622;27;20019;-60
2021/03/03 01:40:25;;;;;;;18.40;10.93;;;12.40;47.50;;;;;;2125971;27;20023;-59
2021/03/03 01:41:46;;;;;;;20.67;11.10;;;12.40;47.50;;;;;;2114958;27;20106;-59
2021/03/03 01:43:07;;;;;;;16.35;10.07;;;12.30;47.40;;;;;;2126416;27;20142;-59
2021/03/03 01:44:29;;;;;;;16.58;10.55;;;12.30;47.40;;;;;;2118940;27;20019;-59
2021/03/03 01:45:50;;;;;;;15.10;10.18;;;12.30;47.50;;;;;;2117105;27;20027;-59
2021/03/03 01:47:11;;;;;;;15.18;9.82;;;12.30;47.50;;;;;;2121975;27;20035;-60
2021/03/03 01:48:32;;;;;;;16.83;9.43;;;12.30;47.60;;;;;;2127921;27;20019;-59
2021/03/03 01:49:53;;;;;;;16.75;9.82;;;12.30;47.60;;;;;;2130389;27;20058;-59
2021/03/03 01:51:15;;;;;;;16.25;9.88;;;12.30;47.60;;;;;;2124863;27;20026;-60
2021/03/03 01:52:41;;;;;;;20.58;10.60;;;12.20;48.10;;;;;;2127444;27;20034;-59
2021/03/03 01:54:02;;;;;;;16.67;10.80;;;12.20;47.90;;;;;;2127482;27;20054;-60
2021/03/03 01:55:23;;;;;;;17.80;10.32;;;12.20;47.70;;;;;;2129331;27;20493;-59
2021/03/03 01:56:44;;;;;;;16.30;9.88;;;12.20;47.80;;;;;;2130342;27;20424;-60
2021/03/03 01:58:05;;;;;;;14.93;10.15;;;12.20;47.80;;;;;;2128486;27;20034;-60
2021/03/03 01:59:26;;;;;;;16.25;10.15;;;12.20;47.80;;;;;;2130860;27;20371;-59
2021/03/03 02:00:48;;;;;;;18.50;10.48;;;12.20;47.80;;;;;;2130546;27;20410;-60
2021/03/03 02:02:08;;;;;;;16.38;9.88;;;12.20;47.90;;;;;;2130104;27;20015;-59
2021/03/03 02:03:30;;;;;;;15.93;9.82;;;12.20;47.80;;;;;;2127035;27;20470;-59
2021/03/03 02:04:52;;;;;;;18.08;10.77;;;12.10;47.80;;;;;;2128689;27;20453;-60
2021/03/03 02:06:38;;;;;;;17.27;10.48;;;12.10;48.00;;;;;;2130052;27;20018;-59
2021/03/03 02:08:09;;;;;;;17.90;9.50;;;12.10;48.20;;;;;;2130252;27;20035;-59
2021/03/03 02:09:48;;;;;;;15.35;9.45;;;12.10;48.10;;;;;;2123457;27;20020;-59
2021/03/03 02:11:20;;;;;;;17.38;10.48;;;12.10;48.40;;;;;;2122707;27;20042;-59
2021/03/03 02:12:47;;;;;;;16.80;9.88;;;12.10;48.20;;;;;;2131109;27;20058;-59
2021/03/03 02:14:18;;;;;;;16.60;10.80;;;12.10;48.10;;;;;;2126356;27;20046;-60
2021/03/03 02:15:41;;;;;;;16.77;9.82;;;12.00;48.20;;;;;;2130204;27;20023;-59
2021/03/03 02:17:03;;;;;;;18.02;9.75;;;12.00;48.20;;;;;;2129975;27;20076;-59
2021/03/03 02:18:25;;;;;;;19.10;10.05;;;12.00;48.20;;;;;;2129963;27;20054;-60
2021/03/03 02:19:47;;;;;;;21.23;10.40;;;12.00;48.20;;;;;;2131204;27;20398;-59
2021/03/03 02:21:27;;;;;;;15.52;10.48;;;12.00;48.30;;;;;;2130354;27;20056;-59
2021/03/03 02:23:16;;;;;;;14.98;10.20;;;12.00;48.20;;;;;;2131076;27;20019;-59
2021/03/03 02:24:46;;;;;;;17.25;9.43;;;12.00;48.70;;;;;;2131755;27;20034;-60
2021/03/03 02:26:07;;;;;;;;;;;11.90;48.20;;;;;;2128305;27;20031;-61
2021/03/03 02:27:29;;;;;;;14.65;9.52;;;11.90;48.40;;;;;;2127179;27;19902;-59
2021/03/03 02:28:51;;;;;;;17.05;9.88;;;11.90;47.80;;;;;;2129783;27;20033;-60
2021/03/03 02:30:13;;;;;;;18.75;10.60;;;11.90;48.00;;;;;;2130031;27;20349;-60
2021/03/03 02:31:35;;;;;;;14.10;9.95;;;11.90;48.10;;;;;;2128118;27;20045;-60
2021/03/03 02:32:57;;;;;;;16.48;10.05;;;11.80;48.20;;;;;;2126527;27;20069;-60
2021/03/03 02:34:21;;;;;;;17.10;10.23;;;11.80;48.30;;;;;;2126047;27;20034;-60
2021/03/03 02:35:46;;;;;;;15.98;10.32;;;11.80;48.50;;;;;;2121976;27;20027;-60
2021/03/03 02:37:07;;;;;;;15.38;10.05;;;11.80;48.80;;;;;;2127824;27;20035;-59
2021/03/03 02:38:29;;;;;;;16.88;10.70;;;11.80;48.70;;;;;;2125842;27;20031;-59
2021/03/03 02:39:51;;;;;;;18.75;10.80;;;11.80;48.70;;;;;;2121229;27;20196;-59
2021/03/03 02:41:15;;;;;;;16.77;11.00;;;11.80;48.80;;;;;;2121573;27;20069;-59
2021/03/03 02:42:37;;;;;;;17.20;10.25;;;11.80;49.00;;;;;;2130402;27;20057;-59
2021/03/03 02:44:03;;;;;;;15.07;10.32;;;11.80;49.00;;;;;;2128012;27;20026;-59
2021/03/03 02:45:25;;;;;;;16.88;10.52;;;11.70;49.10;;;;;;2124860;27;20509;-59
2021/03/03 02:46:47;;;;;;;18.52;10.65;;;11.70;49.00;;;;;;2128947;27;20023;-60
2021/03/03 02:48:09;;;;;;;16.27;10.65;;;11.70;49.00;;;;;;2129050;27;20031;-59
2021/03/03 02:49:31;;;;;;;18.52;11.07;;;11.70;49.10;;;;;;2126178;27;20052;-60
2021/03/03 02:50:52;;;;;;;17.92;10.57;;;11.70;49.20;;;;;;2127203;27;20038;-59
2021/03/03 02:52:13;;;;;;;17.10;10.52;;;11.70;49.20;;;;;;2128397;27;20029;-59
2021/03/03 02:53:34;;;;;;;18.58;11.45;;;11.70;49.20;;;;;;2127129;27;20079;-59
2021/03/03 02:54:55;;;;;;;21.67;12.30;;;11.70;49.30;;;;;;2120148;28;20054;-58
2021/03/03 02:56:16;;;;;;;18.85;12.02;;;11.70;49.90;;;;;;2119031;27;20027;-59
2021/03/03 02:57:37;;;;;;;16.08;11.45;;;11.70;49.40;;;;;;2128143;27;20083;-60
2021/03/03 02:59:05;;;;;;;18.10;11.40;;;11.70;49.40;;;;;;2121643;27;20035;-59
2021/03/03 03:00:31;;;;;;;19.17;11.30;;;11.70;49.70;;;;;;2129356;27;20470;-59
2021/03/03 03:01:54;;;;;;;18.33;11.15;;;11.70;49.70;;;;;;2123952;27;20353;-59
2021/03/03 03:03:15;;;;;;;17.33;10.88;;;11.70;49.60;;;;;;2131126;27;20030;-60
2021/03/03 03:04:39;;;;;;;18.58;10.32;;;11.70;49.50;;;;;;2130178;27;20027;-60
2021/03/03 03:06:05;;;;;;;16.88;10.75;;;11.70;49.60;;;;;;2131919;27;20083;-60
2021/03/03 03:07:27;;;;;;;19.50;12.27;;;11.70;49.70;;;;;;2130308;27;20072;-60
2021/03/03 03:08:49;;;;;;;16.10;10.45;;;11.70;49.50;;;;;;2133326;27;20033;-60
2021/03/03 03:10:14;;;;;;;18.58;11.25;;;11.70;49.50;;;;;;2129420;27;20326;-60
2021/03/03 03:11:45;;;;;;;18.42;10.68;;;11.80;49.60;;;;;;2127962;27;20026;-60
2021/03/03 03:13:11;;;;;;;18.70;11.43;;;11.70;50.00;;;;;;2123551;27;20156;-60
2021/03/03 03:14:34;;;;;;;19.95;11.82;;;11.70;49.80;;;;;;2123157;27;20035;-60
2021/03/03 03:15:55;;;;;;;19.05;11.20;;;11.70;49.60;;;;;;2121160;27;20038;-60
2021/03/03 03:17:19;;;;;;;17.15;11.63;;;11.70;49.60;;;;;;2125789;27;20038;-60
2021/03/03 03:18:45;;;;;;;17.77;10.85;;;11.70;49.60;;;;;;2126258;27;20442;-60
2021/03/03 03:20:08;;;;;;;19.58;11.25;;;11.70;49.70;;;;;;2131316;27;20092;-60
2021/03/03 03:21:30;;;;;;;18.52;11.13;;;11.70;49.60;;;;;;2131802;27;20042;-60
2021/03/03 03:22:53;;;;;;;15.93;11.23;;;11.70;49.70;;;;;;2126838;27;20361;-60
2021/03/03 03:24:18;;;;;;;19.13;12.10;;;11.70;49.90;;;;;;2126750;27;20029;-60
2021/03/03 03:25:40;;;;;;;20.83;11.30;;;11.70;50.00;;;;;;2127584;27;20103;-60
2021/03/03 03:27:02;;;;;;;18.42;11.32;;;11.70;49.90;;;;;;2130126;27;20042;-60
2021/03/03 03:28:24;;;;;;;17.98;11.30;;;11.70;49.80;;;;;;2125098;27;20377;-60
2021/03/03 03:29:46;;;;;;;17.45;11.48;;;11.70;49.70;;;;;;2121569;27;20031;-60
2021/03/03 03:31:08;;;;;;;17.73;10.80;;;11.70;49.80;;;;;;2126978;27;20082;-60
2021/03/03 03:32:30;;;;;;;16.58;11.38;;;11.70;49.80;;;;;;2127345;27;20019;-60
2021/03/03 03:33:52;;;;;;;17.25;11.32;;;11.70;49.90;;;;;;2128754;27;20062;-60
2021/03/03 03:35:15;;;;;;;18.98;11.45;;;11.70;49.90;;;;;;2129199;27;20042;-60
2021/03/03 03:36:37;;;;;;;20.02;12.00;;;11.70;50.00;;;;;;2121749;27;20019;-61
2021/03/03 03:37:59;;;;;;;18.77;11.52;;;11.70;50.10;;;;;;2124975;27;20031;-60
2021/03/03 03:39:20;;;;;;;21.20;11.55;;;11.70;50.10;;;;;;2130224;27;20015;-60
2021/03/03 03:40:41;;;;;;;19.50;11.65;;;11.70;50.00;;;;;;2126704;27;20019;-60
2021/03/03 03:42:03;;;;;;;22.10;12.60;;;11.60;50.00;;;;;;2129637;27;20101;-61
2021/03/03 03:43:25;;;;;;;19.65;11.43;;;11.70;50.10;;;;;;2127808;27;20054;-60
2021/03/03 03:44:47;;;;;;;21.38;11.75;;;11.70;50.20;;;;;;2131114;27;20045;-60
2021/03/03 03:46:10;;;;;;;18.52;12.35;;;11.70;50.20;;;;;;2130764;27;20516;-60
2021/03/03 03:47:32;;;;;;;20.13;11.40;;;11.60;50.30;;;;;;2119056;27;20046;-60
2021/03/03 03:48:53;;;;;;;19.15;11.80;;;11.60;50.20;;;;;;2129324;27;20053;-60
2021/03/03 03:50:15;;;;;;;20.77;12.10;;;11.60;50.20;;;;;;2130632;27;20038;-61
2021/03/03 03:51:39;;;;;;;18.95;11.68;;;11.60;50.30;;;;;;2128316;27;20026;-61
2021/03/03 03:53:01;;;;;;;18.70;11.82;;;11.60;50.50;;;;;;2129465;27;20049;-60
2021/03/03 03:54:21;;;;;;;20.13;12.32;;;11.60;50.30;;;;;;2127547;27;20031;-60
2021/03/03 03:55:42;;;;;;;24.58;12.88;;;11.60;50.50;;;;;;2130490;27;20037;-60
2021/03/03 03:57:04;;;;;;;21.75;12.07;;;11.60;50.60;;;;;;2130741;27;20034;-61
2021/03/03 03:58:26;;;;;;;17.92;11.90;;;11.60;50.60;;;;;;2129579;27;20034;-60
2021/03/03 03:59:47;;;;;;;19.67;11.73;;;11.60;50.70;;;;;;2131775;27;20102;-59
2021/03/03 04:01:08;;;;;;;22.73;12.55;;;11.60;50.70;;;;;;2128987;27;20019;-60
2021/03/03 04:02:29;;;;;;;20.88;12.05;;;11.60;50.60;;;;;;2123001;27;20104;-59
2021/03/03 04:03:50;;;;;;;20.73;13.10;;;11.60;50.70;;;;;;2120581;27;20510;-60
2021/03/03 04:05:11;;;;;;;21.23;12.15;;;11.60;50.70;;;;;;2126147;27;20027;-59
2021/03/03 04:06:32;;;;;;;18.67;12.07;;;11.60;50.80;;;;;;2125183;27;20030;-60
2021/03/03 04:07:54;;;;;;;19.60;12.27;;;11.60;50.80;;;;;;2129477;27;20504;-59
2021/03/03 04:09:15;;;;;;;22.95;13.63;;;11.60;50.90;;;;;;2130918;27;20628;-59
2021/03/03 04:10:36;;;;;;;21.92;13.27;;;11.60;50.80;;;;;;2130712;27;20515;-59
2021/03/03 04:11:57;;;;;;;19.55;11.82;;;11.50;50.70;;;;;;2131005;27;20050;-59
2021/03/03 04:13:19;;;;;;;20.30;12.63;;;11.50;50.80;;;;;;2123616;27;20027;-59
2021/03/03 04:14:40;;;;;;;17.27;10.70;;;11.50;50.80;;;;;;2126929;27;20031;-59
2021/03/03 04:16:01;;;;;;;23.00;12.55;;;11.60;50.80;;;;;;2131338;27;20151;-58
2021/03/03 04:17:22;;;;;;;18.70;12.27;;;11.50;50.70;;;;;;2125578;27;20027;-59
2021/03/03 04:18:42;;;;;;;18.75;12.88;;;11.50;50.90;;;;;;2128090;27;20095;-59
2021/03/03 04:20:06;;;;;;;21.75;12.82;;;11.50;50.90;;;;;;2130332;27;20026;-59
2021/03/03 04:21:27;;;;;;;22.40;12.45;;;11.50;51.00;;;;;;2127743;27;20023;-59
2021/03/03 04:22:48;;;;;;;19.48;12.60;;;11.50;50.90;;;;;;2132077;27;20058;-59
2021/03/03 04:24:09;;;;;;;21.40;13.57;;;11.50;50.90;;;;;;2130527;27;20034;-59
2021/03/03 04:25:30;;;;;;;22.60;13.60;;;11.50;51.00;;;;;;2116768;27;20158;-59
2021/03/03 04:26:51;;;;;;;20.70;13.00;;;11.50;51.00;;;;;;2122156;27;20019;-59
2021/03/03 04:28:12;;;;;;;21.23;13.65;;;11.50;51.10;;;;;;2129479;27;20448;-59
2021/03/03 04:29:33;;;;;;;23.48;13.48;;;11.50;51.20;;;;;;2119404;27;20361;-59
2021/03/03 04:30:54;;;;;;;20.88;12.93;;;11.50;51.20;;;;;;2124840;27;20031;-59
2021/03/03 04:32:15;;;;;;;18.23;13.32;;;11.50;51.20;;;;;;2129393;27;20041;-59
2021/03/03 04:33:35;;;;;;;21.55;14.68;;;11.50;51.30;;;;;;2129444;27;20110;-59
2021/03/03 04:34:56;;;;;;;24.13;14.60;;;11.50;51.40;;;;;;2127677;27;20076;-59
2021/03/03 04:36:17;;;;;;;24.17;14.55;;;11.50;51.40;;;;;;2131727;27;20038;-59
2021/03/03 04:37:39;;;;;;;22.90;15.07;;;11.50;51.40;;;;;;2127904;27;20034;-59
2021/03/03 04:39:00;;;;;;;26.50;15.40;;;11.50;51.40;;;;;;2125516;27;20374;-59
2021/03/03 04:40:21;;;;;;;27.38;16.20;;;11.50;51.50;;;;;;2125561;27;20035;-59
2021/03/03 04:41:42;;;;;;;24.75;17.33;;;11.50;51.50;;;;;;2129372;27;20082;-59
2021/03/03 04:43:03;;;;;;;27.88;17.98;;;11.50;52.00;;;;;;2129893;27;20042;-59
2021/03/03 04:44:24;;;;;;;32.72;19.63;;;11.50;51.60;;;;;;2127606;27;20076;-59
2021/03/03 04:45:44;;;;;;;31.42;18.85;;;11.50;51.60;;;;;;2131550;27;20106;-59
2021/03/03 04:47:05;;;;;;;33.67;19.83;;;11.50;51.60;;;;;;2127847;27;20113;-59
2021/03/03 04:48:27;;;;;;;33.05;19.25;;;11.50;51.50;;;;;;2126333;27;20064;-59
2021/03/03 04:49:49;;;;;;;28.85;18.63;;;11.50;51.50;;;;;;2131918;27;20049;-59
2021/03/03 04:51:09;;;;;;;33.75;19.00;;;11.50;51.40;;;;;;2131400;27;20652;-59
2021/03/03 04:52:30;;;;;;;29.95;17.48;;;11.50;51.40;;;;;;2126505;27;20038;-59
2021/03/03 04:53:51;;;;;;;31.58;18.67;;;11.50;51.40;;;;;;2116239;27;20023;-59
2021/03/03 04:55:12;;;;;;;31.83;18.58;;;11.50;51.50;;;;;;2120347;27;20023;-59
2021/03/03 04:56:33;;;;;;;31.00;17.67;;;11.50;51.50;;;;;;2124924;27;20122;-60
2021/03/03 04:57:54;;;;;;;35.28;18.65;;;11.50;52.00;;;;;;2129805;27;20035;-59
2021/03/03 04:59:15;;;;;;;31.80;17.67;;;11.50;51.50;;;;;;2122271;27;20035;-59
2021/03/03 05:00:36;;;;;;;33.47;17.85;;;11.50;51.70;;;;;;2128895;27;20026;-59
2021/03/03 05:01:57;;;;;;;32.95;19.15;;;11.50;51.70;;;;;;2131304;27;20066;-59
2021/03/03 05:03:17;;;;;;;34.08;19.25;;;11.50;51.80;;;;;;2132273;27;20038;-59
2021/03/03 05:04:38;;;;;;;28.55;17.38;;;11.50;51.80;;;;;;2130629;27;20026;-59
2021/03/03 05:05:59;;;;;;;30.48;16.58;;;11.50;51.80;;;;;;2132015;27;20133;-59
2021/03/03 05:07:20;;;;;;;24.40;15.90;;;11.40;51.70;;;;;;2126497;27;20068;-59
2021/03/03 05:08:41;;;;;;;27.35;15.88;;;11.40;51.60;;;;;;2129293;27;20408;-59
2021/03/03 05:10:03;;;;;;;27.42;16.27;;;11.40;51.60;;;;;;2129096;27;20346;-59
2021/03/03 05:11:24;;;;;;;25.85;15.25;;;11.40;51.60;;;;;;2125236;27;20041;-59
2021/03/03 05:12:44;;;;;;;31.67;15.75;;;11.40;51.60;;;;;;2129189;27;20031;-59
2021/03/03 05:14:06;;;;;;;29.35;16.40;;;11.40;51.60;;;;;;2126883;27;20061;-59
2021/03/03 05:15:26;;;;;;;28.10;14.68;;;11.40;51.60;;;;;;2130615;27;20035;-59
2021/03/03 05:16:47;;;;;;;28.15;15.27;;;11.40;51.70;;;;;;2127856;27;20034;-59
2021/03/03 05:18:11;;;;;;;30.45;15.40;;;11.50;51.70;;;;;;2130218;27;20140;-59
2021/03/03 05:19:32;;;;;;;26.10;15.50;;;11.40;52.00;;;;;;2129609;27;20023;-59
2021/03/03 05:20:53;;;;;;;23.75;15.40;;;11.40;51.90;;;;;;2128422;27;20030;-59
2021/03/03 05:22:14;;;;;;;24.10;14.55;;;11.40;51.90;;;;;;2131123;27;20018;-59
2021/03/03 05:23:36;;;;;;;28.35;15.80;;;11.40;51.90;;;;;;2127022;27;20023;-59
2021/03/03 05:24:56;;;;;;;25.92;15.43;;;11.40;52.50;;;;;;2130309;27;20401;-59
2021/03/03 05:26:17;;;;;;;28.00;16.52;;;11.40;51.90;;;;;;2130042;27;20126;-58
2021/03/03 05:27:38;;;;;;;26.70;15.82;;;11.40;51.90;;;;;;2130354;27;20034;-58
2021/03/03 05:28:59;;;;;;;29.08;15.05;;;11.40;51.90;;;;;;2120092;27;20039;-58
2021/03/03 05:30:20;;;;;;;27.25;15.18;;;11.40;51.80;;;;;;2125686;27;20031;-59
2021/03/03 05:31:41;;;;;;;26.05;15.23;;;11.40;51.80;;;;;;2127517;27;20345;-58
2021/03/03 05:33:02;;;;;;;25.98;14.60;;;11.40;51.90;;;;;;2130711;27;20578;-58
2021/03/03 05:34:23;;;;;;;25.02;15.15;;;11.40;51.90;;;;;;2125211;27;20034;-58
2021/03/03 05:35:44;;;;;;;26.08;14.65;;;11.40;51.90;;;;;;2130190;27;20118;-60
2021/03/03 05:37:05;;;;;;;28.27;14.68;;;11.40;51.90;;;;;;2128464;27;20370;-60
2021/03/03 05:38:26;;;;;;;21.45;14.05;;;11.40;51.80;;;;;;2126393;27;20034;-59
2021/03/03 05:39:47;;;;;;;21.77;13.55;;;11.40;51.90;;;;;;2130447;27;20015;-59
2021/03/03 05:41:09;;;;;;;22.40;12.35;;;11.40;51.90;;;;;;2127554;27;20516;-59
2021/03/03 05:42:30;;;;;;;21.70;12.43;;;11.40;51.90;;;;;;2126966;27;20327;-59
2021/03/03 05:43:53;;;;;;;21.45;13.38;;;11.40;51.90;;;;;;2131605;27;20030;-59
2021/03/03 05:45:17;;;;;;;28.40;13.57;;;11.40;51.90;;;;;;2128887;27;20018;-59
2021/03/03 05:46:39;;;;;;;22.35;13.30;;;11.30;52.00;;;;;;2125134;27;20043;-59
2021/03/03 05:48:00;;;;;;;24.58;12.27;;;11.40;52.00;;;;;;2125310;27;20007;-59
2021/03/03 05:49:24;;;;;;;20.13;11.75;;;11.40;51.90;;;;;;2125439;27;20035;-59
2021/03/03 05:50:48;;;;;;;23.02;12.77;;;11.30;51.80;;;;;;2127432;27;20023;-58
2021/03/03 05:52:12;;;;;;;22.48;12.82;;;11.40;51.90;;;;;;2127358;27;20034;-60
2021/03/03 05:53:35;;;;;;;22.05;12.70;;;11.30;51.90;;;;;;2117817;27;20080;-58
2021/03/03 05:54:56;;;;;;;18.95;12.35;;;11.30;51.90;;;;;;2123044;27;20066;-58
2021/03/03 05:56:22;;;;;;;21.27;13.23;;;11.30;51.80;;;;;;2129629;27;20058;-61
2021/03/03 05:57:43;;;;;;;24.15;13.02;;;11.30;52.00;;;;;;2124686;27;20114;-59
2021/03/03 05:59:09;;;;;;;21.40;12.23;;;11.30;51.80;;;;;;2129067;27;20042;-60
2021/03/03 06:00:30;;;;;;;20.67;12.20;;;11.30;52.00;;;;;;2128590;27;20046;-58
2021/03/03 06:01:51;;;;;;;19.58;11.70;;;11.30;51.90;;;;;;2129453;27;20066;-59
2021/03/03 06:03:13;;;;;;;21.48;12.40;;;11.30;51.90;;;;;;2130512;27;20133;-59
2021/03/03 06:04:34;;;;;;;18.75;11.43;;;11.30;51.90;;;;;;2126367;27;20069;-59
2021/03/03 06:05:55;;;;;;;21.95;11.95;;;11.30;51.90;;;;;;2130043;27;20037;-59
2021/03/03 06:07:16;;;;;;;22.27;11.05;;;11.20;51.70;;;;;;2127856;27;20104;-59
2021/03/03 06:08:37;;;;;;;21.92;11.63;;;11.30;51.70;;;;;;2125240;27;20038;-59
2021/03/03 06:09:58;;;;;;;22.45;12.90;;;11.20;51.70;;;;;;2130883;27;20023;-59
2021/03/03 06:11:19;;;;;;;21.60;11.43;;;11.30;51.80;;;;;;2129643;27;20078;-59
2021/03/03 06:12:40;;;;;;;21.40;12.98;;;11.20;51.80;;;;;;2127229;27;20019;-59
2021/03/03 06:14:01;;;;;;;24.95;12.13;;;11.20;51.80;;;;;;2130005;27;20027;-61
2021/03/03 06:15:23;;;;;;;19.73;11.80;;;11.20;51.90;;;;;;2129412;27;20520;-60
2021/03/03 06:16:45;;;;;;;20.80;12.45;;;11.20;51.90;;;;;;2129295;27;20445;-60
2021/03/03 06:18:08;;;;;;;20.33;12.05;;;11.20;51.90;;;;;;2129208;27;20065;-61
2021/03/03 06:19:30;;;;;;;21.05;13.40;;;11.20;51.90;;;;;;2125814;27;20406;-60
2021/03/03 06:20:53;;;;;;;22.08;12.90;;;11.20;52.00;;;;;;2131929;27;20117;-60
2021/03/03 06:22:24;;;;;;;22.80;12.15;;;11.20;52.00;;;;;;2131376;27;20122;-60
2021/03/03 06:23:57;;;;;;;21.08;12.63;;;11.20;52.10;;;;;;2126831;27;20022;-60
2021/03/03 06:25:22;;;;;;;18.42;11.52;;;11.20;52.00;;;;;;2124241;27;20038;-61
2021/03/03 06:26:57;;;;;;;22.27;12.30;;;11.20;52.20;;;;;;2128043;27;20076;-60
2021/03/03 06:28:40;;;;;;;21.50;11.98;;;11.20;52.30;;;;;;2130652;27;20105;-60
2021/03/03 06:30:13;;;;;;;17.70;11.15;;;11.20;52.30;;;;;;2128707;27;20053;-60
2021/03/03 06:31:37;;;;;;;18.02;10.73;;;11.30;52.20;;;;;;2125504;27;20109;-60
2021/03/03 06:33:02;;;;;;;17.95;11.00;;;11.20;52.00;;;;;;2129841;27;20042;-61
2021/03/03 06:34:25;;;;;;;21.52;11.52;;;11.30;51.90;;;;;;2123953;27;20031;-60
2021/03/03 06:35:47;;;;;;;17.15;10.95;;;11.20;51.90;;;;;;2127265;27;20373;-60
2021/03/03 06:37:08;;;;;;;18.38;11.27;;;11.20;52.00;;;;;;2129176;27;20038;-62
2021/03/03 06:38:30;;;;;;;21.33;11.52;;;11.20;52.00;;;;;;2125183;27;20050;-61
2021/03/03 06:40:08;;;;;;;19.45;10.85;;;11.20;52.00;;;;;;2129955;27;20033;-61
2021/03/03 06:41:38;;;;;;;18.58;11.20;;;11.20;52.50;;;;;;2127219;27;20030;-61
2021/03/03 06:43:18;;;;;;;17.05;10.63;;;11.20;52.40;;;;;;2124605;27;20725;-60
2021/03/03 06:44:48;;;;;;;20.50;10.35;;;11.20;52.30;;;;;;2128129;27;20117;-61
2021/03/03 06:46:18;;;;;;;15.68;9.65;;;11.20;52.20;;;;;;2129576;27;20079;-60
2021/03/03 06:47:58;;;;;;;20.13;9.95;;;11.30;52.20;;;;;;2127198;27;20167;-60
2021/03/03 06:49:23;;;;;;;17.67;10.57;;;11.20;52.20;;;;;;2123889;27;20030;-60
2021/03/03 06:50:48;;;;;;;19.20;11.00;;;11.30;52.20;;;;;;2128973;27;20022;-60
2021/03/03 06:52:09;;;;;;;17.15;10.30;;;11.30;52.10;;;;;;2130781;27;20094;-60
2021/03/03 06:53:31;;;;;;;17.08;10.82;;;11.30;52.10;;;;;;2117177;28;20031;-60
2021/03/03 06:55:00;;;;;;;17.50;10.35;;;11.30;52.20;;;;;;2127796;27;20051;-61
2021/03/03 06:56:40;;;;;;;16.37;10.23;;;11.30;52.40;;;;;;2130576;27;20443;-59
2021/03/03 06:58:27;;;;;;;19.23;9.57;;;11.30;52.60;;;;;;2129097;27;20254;-61
2021/03/03 06:59:48;;;;;;;20.30;10.32;;;11.30;53.00;;;;;;2119657;27;20604;-60